Time;durP1;ratioP1;P1;durP2;ratioP2;P2;SDS_P1;SDS_P2;PMS_P1;PMS_P2;Temp;Humidity;BMP_temperature;BMP_pressure;BME280_temperature;BME280_humidity;BME280_pressure;Samples;Min_cycle;Max_cycle;Signal;HPM_P1;HPM_P2
2023/01/19 00:02:50;;;;;;;2.00;1.50;;;6.20;99.90;;;;;;10233168;28;20038;-64
2023/01/19 00:07:51;;;;;;;1.77;1.23;;;6.20;99.90;;;;;;10253694;28;20108;-64
2023/01/19 00:12:52;;;;;;;3.22;1.50;;;6.20;99.90;;;;;;10245256;28;20033;-64
2023/01/19 00:17:52;;;;;;;1.80;1.25;;;6.20;99.90;;;;;;10230594;28;20020;-67
2023/01/19 00:22:53;;;;;;;1.88;1.30;;;6.20;99.90;;;;;;10217660;28;20025;-64
2023/01/19 00:27:53;;;;;;;3.72;1.30;;;6.20;99.90;;;;;;10214668;28;20024;-67
2023/01/19 00:32:54;;;;;;;3.17;1.30;;;6.20;99.90;;;;;;10209464;28;20031;-64
2023/01/19 00:37:56;;;;;;;1.92;0.93;;;6.20;99.90;;;;;;10204167;28;20098;-66
2023/01/19 00:42:57;;;;;;;0.85;0.82;;;6.20;99.90;;;;;;10234796;28;20540;-65
2023/01/19 00:47:58;;;;;;;1.27;0.90;;;6.20;99.90;;;;;;10216888;28;20086;-67
2023/01/19 00:52:59;;;;;;;1.70;1.17;;;6.20;99.90;;;;;;10207327;28;20021;-64
2023/01/19 00:58:01;;;;;;;1.17;1.00;;;6.20;99.90;;;;;;10212084;28;20016;-64
2023/01/19 01:03:02;;;;;;;1.25;1.00;;;6.20;99.90;;;;;;10211509;28;20031;-64
2023/01/19 01:08:03;;;;;;;1.70;1.17;;;6.20;99.90;;;;;;10210523;28;20014;-67
2023/01/19 01:13:03;;;;;;;0.93;0.90;;;6.20;99.90;;;;;;10205866;28;20204;-63
2023/01/19 01:18:04;;;;;;;1.50;0.90;;;6.20;99.90;;;;;;10239054;28;20541;-67
2023/01/19 01:23:05;;;;;;;1.17;0.80;;;6.20;99.90;;;;;;10218418;28;20026;-64
2023/01/19 01:28:07;;;;;;;1.70;1.00;;;6.20;99.90;;;;;;10247071;28;20513;-63
2023/01/19 01:33:10;;;;;;;1.67;1.02;;;6.20;99.90;;;;;;10205984;28;20400;-67
2023/01/19 01:38:11;;;;;;;2.20;1.02;;;6.10;99.90;;;;;;10205968;28;20110;-64
2023/01/19 01:43:12;;;;;;;1.17;1.00;;;6.10;99.90;;;;;;10198152;28;20217;-67
2023/01/19 01:48:26;;;;;;;1.63;1.10;;;6.20;99.90;;;;;;10225656;28;20047;-66
2023/01/19 01:53:29;;;;;;;2.00;1.17;;;6.10;99.90;;;;;;10196946;28;20036;-64
2023/01/19 01:58:31;;;;;;;1.45;1.08;;;6.10;99.90;;;;;;10242241;28;20025;-65
2023/01/19 02:03:32;;;;;;;2.70;1.25;;;6.10;99.90;;;;;;10206074;28;20119;-64
2023/01/19 02:14:05;;;;;;;2.10;1.40;;;6.10;99.90;;;;;;10212539;28;20027;-64
2023/01/19 02:19:09;;;;;;;2.50;1.60;;;6.10;99.90;;;;;;10213485;28;20484;-67
2023/01/19 02:24:10;;;;;;;4.10;1.58;;;6.10;99.90;;;;;;10191002;28;20103;-64
2023/01/19 02:29:15;;;;;;;1.80;1.50;;;6.10;99.90;;;;;;10212209;28;20040;-64
2023/01/19 02:34:18;;;;;;;2.40;1.40;;;6.10;99.90;;;;;;10200373;28;20020;-63
2023/01/19 02:39:29;;;;;;;1.40;1.10;;;6.10;99.90;;;;;;10200241;28;20024;-64
2023/01/19 02:44:31;;;;;;;2.17;1.40;;;6.10;99.90;;;;;;10282510;28;20018;-67
2023/01/19 02:49:32;;;;;;;2.65;1.50;;;6.10;99.90;;;;;;10189863;28;20431;-67
2023/01/19 02:54:41;;;;;;;1.88;1.33;;;6.10;99.90;;;;;;10211318;28;20036;-67
2023/01/19 02:59:44;;;;;;;2.10;1.58;;;6.10;99.90;;;;;;10202881;28;20054;-64
2023/01/19 03:05:12;;;;;;;1.70;1.27;;;6.10;99.90;;;;;;10188738;28;20031;-64
2023/01/19 03:10:39;;;;;;;2.50;1.27;;;6.10;99.90;;;;;;10218212;28;20309;-65
2023/01/19 03:15:51;;;;;;;1.45;1.20;;;6.10;99.90;;;;;;10205105;28;20023;-67
2023/01/19 03:20:56;;;;;;;1.80;1.30;;;6.10;99.90;;;;;;10204502;28;20498;-67
2023/01/19 03:25:59;;;;;;;1.30;1.10;;;6.10;99.90;;;;;;10197643;28;20040;-67
2023/01/19 03:31:09;;;;;;;2.05;1.23;;;6.10;99.90;;;;;;10200114;28;20067;-66
2023/01/19 03:36:42;;;;;;;2.03;1.40;;;6.10;99.90;;;;;;10199735;28;20020;-64
2023/01/19 03:41:46;;;;;;;1.58;1.00;;;6.10;99.90;;;;;;10199030;28;20534;-65
2023/01/19 03:46:49;;;;;;;1.83;1.20;;;6.10;99.90;;;;;;10211862;28;20028;-66
2023/01/19 03:51:50;;;;;;;1.48;1.20;;;6.10;99.90;;;;;;10226166;28;20468;-67
2023/01/19 03:56:54;;;;;;;2.15;1.20;;;6.10;99.90;;;;;;10246979;28;20528;-64
2023/01/19 04:01:54;;;;;;;1.40;1.10;;;6.10;99.90;;;;;;10212426;28;20125;-64
2023/01/19 04:06:56;;;;;;;1.05;0.90;;;6.10;99.90;;;;;;10226796;28;20078;-66
2023/01/19 04:11:57;;;;;;;1.17;0.95;;;6.10;99.90;;;;;;10208178;28;20101;-64
2023/01/19 04:16:57;;;;;;;2.15;1.05;;;6.10;99.90;;;;;;10205916;28;20070;-65
2023/01/19 04:21:58;;;;;;;1.60;1.02;;;6.10;99.90;;;;;;10199290;28;20034;-64
2023/01/19 04:26:59;;;;;;;1.15;0.75;;;6.10;99.90;;;;;;10200856;28;20023;-65
2023/01/19 04:32:00;;;;;;;1.50;1.15;;;6.10;99.90;;;;;;10211882;28;20067;-66
2023/01/19 04:37:00;;;;;;;0.77;0.68;;;6.10;99.90;;;;;;10210902;28;20113;-68
2023/01/19 04:42:01;;;;;;;1.88;1.00;;;6.10;99.90;;;;;;10197834;28;20039;-68
2023/01/19 04:47:02;;;;;;;1.45;1.00;;;6.10;99.90;;;;;;10243125;28;20020;-65
2023/01/19 04:52:06;;;;;;;1.60;0.80;;;6.10;99.90;;;;;;10204239;28;20261;-65
2023/01/19 04:57:06;;;;;;;1.52;0.85;;;6.10;99.90;;;;;;10230708;28;20113;-64
2023/01/19 05:02:07;;;;;;;0.77;0.68;;;6.10;99.90;;;;;;10213190;28;20135;-66
2023/01/19 05:07:07;;;;;;;2.00;0.85;;;6.20;99.90;;;;;;10230077;28;20031;-68
2023/01/19 05:12:08;;;;;;;1.02;0.43;;;6.20;99.90;;;;;;10213514;28;20381;-65
2023/01/19 05:17:09;;;;;;;1.65;0.60;;;6.20;99.90;;;;;;10205691;28;20027;-64
2023/01/19 05:22:10;;;;;;;1.05;0.52;;;6.20;99.90;;;;;;10214978;28;20027;-64
2023/01/19 05:27:11;;;;;;;2.85;0.60;;;6.20;99.90;;;;;;10188985;28;20107;-64
2023/01/19 05:32:12;;;;;;;1.25;0.57;;;6.20;99.90;;;;;;10212709;28;20414;-65
2023/01/19 05:37:13;;;;;;;1.35;0.80;;;6.20;99.90;;;;;;10206791;28;20384;-64
2023/01/19 05:42:13;;;;;;;1.75;0.63;;;6.20;99.90;;;;;;10206293;28;20032;-66
2023/01/19 05:47:14;;;;;;;1.10;0.60;;;6.20;99.90;;;;;;10216846;28;20044;-64
2023/01/19 05:52:16;;;;;;;0.88;0.65;;;6.20;99.90;;;;;;10263108;28;20088;-66
2023/01/19 05:57:17;;;;;;;1.55;0.50;;;6.20;99.90;;;;;;10203613;28;20478;-67
2023/01/19 06:02:18;;;;;;;0.70;0.55;;;6.20;99.90;;;;;;10186970;28;20085;-67
2023/01/19 06:07:19;;;;;;;0.82;0.47;;;6.20;99.90;;;;;;10220262;28;20067;-67
2023/01/19 06:12:19;;;;;;;0.68;0.40;;;6.20;99.90;;;;;;10221711;28;20031;-67
2023/01/19 06:17:20;;;;;;;1.88;0.47;;;6.20;99.90;;;;;;10284988;28;20026;-64
2023/01/19 06:22:20;;;;;;;1.08;0.50;;;6.20;99.90;;;;;;10193339;28;20085;-68
2023/01/19 06:27:21;;;;;;;2.30;0.60;;;6.20;99.90;;;;;;10189808;28;20072;-67
2023/01/19 06:32:21;;;;;;;1.65;0.40;;;6.20;99.90;;;;;;10271729;28;20033;-65
2023/01/19 06:37:25;;;;;;;0.68;0.38;;;6.20;99.90;;;;;;10202755;28;20110;-67
2023/01/19 06:42:26;;;;;;;1.05;0.63;;;6.20;99.90;;;;;;10249223;28;20150;-67
2023/01/19 06:47:26;;;;;;;1.77;0.40;;;6.20;99.90;;;;;;10217554;28;20082;-66
2023/01/19 06:52:27;;;;;;;0.90;0.50;;;6.20;99.90;;;;;;10224413;28;20515;-64
2023/01/19 06:57:27;;;;;;;1.17;0.30;;;6.30;99.90;;;;;;10214004;28;20026;-65
2023/01/19 07:02:28;;;;;;;0.93;0.50;;;6.30;99.90;;;;;;10206319;28;20203;-65
2023/01/19 07:07:29;;;;;;;0.82;0.45;;;6.20;99.90;;;;;;10199401;28;20031;-64
2023/01/19 07:12:29;;;;;;;2.70;0.52;;;6.20;99.90;;;;;;10180486;28;20042;-66
2023/01/19 07:17:30;;;;;;;1.17;0.50;;;6.30;99.90;;;;;;10184201;28;20206;-64
2023/01/19 07:22:31;;;;;;;0.63;0.38;;;6.30;99.90;;;;;;10198658;28;20024;-67
2023/01/19 07:27:31;;;;;;;0.55;0.40;;;6.70;99.90;;;;;;10190402;28;20460;-64
2023/01/19 07:32:32;;;;;;;2.83;0.50;;;6.30;99.90;;;;;;10188952;28;20280;-67
2023/01/19 07:37:33;;;;;;;0.40;0.22;;;6.30;99.90;;;;;;10190259;28;20039;-64
2023/01/19 07:42:34;;;;;;;0.85;0.40;;;6.30;99.90;;;;;;10190498;28;20507;-67
2023/01/19 07:47:35;;;;;;;1.75;0.47;;;6.30;99.90;;;;;;10186838;28;20047;-64
2023/01/19 07:52:36;;;;;;;1.23;0.38;;;6.30;99.90;;;;;;10202274;28;20039;-64
2023/01/19 07:57:48;;;;;;;0.60;0.40;;;6.30;99.90;;;;;;10190056;28;20045;-65
2023/01/19 08:02:50;;;;;;;1.45;0.55;;;6.30;99.90;;;;;;10194449;28;20455;-65
2023/01/19 08:07:51;;;;;;;3.28;0.47;;;6.30;99.90;;;;;;10207540;28;20498;-66
2023/01/19 08:12:53;;;;;;;1.17;0.43;;;6.30;99.90;;;;;;10197944;28;20427;-64
2023/01/19 08:17:59;;;;;;;0.75;0.40;;;6.30;99.90;;;;;;10195144;28;20028;-63
2023/01/19 08:23:01;;;;;;;0.85;0.40;;;6.30;99.90;;;;;;10182667;28;20024;-66
2023/01/19 08:28:02;;;;;;;2.75;0.55;;;6.30;99.90;;;;;;10190639;28;20039;-67
2023/01/19 08:33:06;;;;;;;3.13;0.60;;;6.30;99.90;;;;;;10189117;28;20065;-64
2023/01/19 08:38:08;;;;;;;2.33;0.75;;;6.40;99.90;;;;;;10195859;28;20027;-67
2023/01/19 08:43:14;;;;;;;2.80;0.63;;;6.40;99.90;;;;;;10199380;28;20026;-63
2023/01/19 08:48:17;;;;;;;2.40;0.70;;;6.40;99.90;;;;;;10196397;28;20746;-63
2023/01/19 08:53:19;;;;;;;2.60;1.50;;;6.50;99.90;;;;;;10207245;28;20027;-64
2023/01/19 08:58:20;;;;;;;2.88;0.60;;;6.40;99.90;;;;;;10203645;28;20035;-69
2023/01/19 09:03:21;;;;;;;0.80;0.60;;;6.60;99.90;;;;;;10199080;28;20396;-63
2023/01/19 09:08:22;;;;;;;1.88;0.50;;;6.40;99.90;;;;;;10200945;28;20496;-64
2023/01/19 09:13:22;;;;;;;1.15;0.60;;;6.40;99.90;;;;;;10194836;28;20032;-63
2023/01/19 09:18:57;;;;;;;1.60;0.50;;;7.70;99.90;;;;;;10188409;28;20167;-66
2023/01/19 09:29:08;;;;;;;1.65;0.50;;;6.50;99.90;;;;;;11649169;23;20153;-64
2023/01/19 09:34:09;;;;;;;1.25;0.50;;;6.60;99.90;;;;;;10370232;28;20159;-64
2023/01/19 09:39:10;;;;;;;1.40;0.70;;;7.10;99.90;;;;;;10371789;28;20115;-65
2023/01/19 09:44:18;;;;;;;2.95;0.75;;;6.60;99.90;;;;;;10365972;28;20107;-64
2023/01/19 09:49:30;;;;;;;1.65;0.88;;;6.70;99.90;;;;;;10367643;28;20029;-65
2023/01/19 09:54:44;;;;;;;3.80;0.73;;;6.70;99.90;;;;;;10343058;28;20143;-64
2023/01/19 09:59:48;;;;;;;0.93;0.50;;;6.80;99.90;;;;;;10348272;28;20048;-64
2023/01/19 10:04:59;;;;;;;2.75;1.25;;;6.80;99.90;;;;;;10364989;28;20040;-65
2023/01/19 10:10:17;;;;;;;1.20;0.60;;;6.80;99.90;;;;;;10363346;28;20117;-64
2023/01/19 10:15:26;;;;;;;2.42;0.43;;;6.90;99.90;;;;;;10342182;28;20022;-64
2023/01/19 10:20:32;;;;;;;;;;;6.90;99.90;;;;;;10360540;28;20536;-64
2023/01/19 10:25:32;;;;;;;1.48;0.55;;;7.90;99.90;;;;;;10360589;28;19913;-64
2023/01/19 10:30:34;;;;;;;1.90;0.70;;;7.10;99.90;;;;;;10363755;28;20041;-65
2023/01/19 10:35:35;;;;;;;1.73;0.60;;;7.20;99.90;;;;;;10359637;28;20402;-65
2023/01/19 10:40:53;;;;;;;2.92;0.65;;;7.20;99.90;;;;;;10368103;28;20018;-65
2023/01/19 10:45:54;;;;;;;2.28;0.60;;;7.30;99.90;;;;;;10331994;28;20026;-62
2023/01/19 10:51:03;;;;;;;1.35;0.60;;;7.30;99.90;;;;;;10359102;28;20041;-64
2023/01/19 10:56:21;;;;;;;10.20;3.17;;;7.40;99.90;;;;;;10360567;28;20025;-66
2023/01/19 11:01:25;;;;;;;4.07;1.13;;;7.30;99.90;;;;;;10366038;28;20116;-66
2023/01/19 11:06:28;;;;;;;4.28;0.70;;;7.70;99.90;;;;;;10359336;28;20510;-66
2023/01/19 11:11:41;;;;;;;3.55;0.93;;;7.00;99.90;;;;;;10363577;28;20042;-64
2023/01/19 11:16:47;;;;;;;4.93;0.90;;;7.30;99.90;;;;;;10386394;22;20138;-64
2023/01/19 11:21:47;;;;;;;6.85;1.08;;;7.10;99.90;;;;;;10481027;22;20042;-69
2023/01/19 11:27:01;;;;;;;5.85;1.27;;;7.20;99.90;;;;;;10364707;28;20026;-68
2023/01/19 11:37:33;;;;;;;4.68;1.25;;;7.30;99.90;;;;;;10278772;28;20425;-66
2023/01/19 11:42:53;;;;;;;9.45;1.45;;;7.40;99.90;;;;;;10281721;28;20030;-66
2023/01/19 11:48:32;;;;;;;7.22;0.98;;;7.50;99.90;;;;;;10290572;28;20332;-66
2023/01/19 11:53:52;;;;;;;10.27;1.60;;;7.50;99.90;;;;;;10288930;28;20027;-72
2023/01/19 11:59:13;;;;;;;4.57;1.25;;;7.50;99.90;;;;;;10284732;28;20038;-69
2023/01/19 12:04:37;;;;;;;4.97;0.85;;;7.60;99.90;;;;;;10289073;28;20308;-70
2023/01/19 12:10:17;;;;;;;3.78;1.10;;;7.70;99.90;;;;;;10285147;28;20050;-74
2023/01/19 12:15:44;;;;;;;7.93;1.10;;;7.60;99.90;;;;;;10282955;28;20035;-73
2023/01/19 12:21:03;;;;;;;2.65;0.63;;;7.70;99.90;;;;;;10278218;28;20043;-73
2023/01/19 12:26:59;;;;;;;6.63;0.90;;;8.20;99.90;;;;;;10289374;28;20433;-73
2023/01/19 12:32:28;;;;;;;5.05;0.70;;;7.60;99.90;;;;;;10282232;28;20043;-66
2023/01/19 12:37:48;;;;;;;3.58;0.70;;;7.60;99.90;;;;;;10284055;28;20035;-67
2023/01/19 12:43:14;;;;;;;4.95;0.82;;;7.40;99.90;;;;;;10278426;28;20389;-72
2023/01/19 12:48:34;;;;;;;7.28;1.20;;;7.60;99.90;;;;;;10275820;28;20529;-73
2023/01/19 12:53:55;;;;;;;3.45;0.82;;;7.40;99.90;;;;;;10281954;28;20102;-72
2023/01/19 12:59:24;;;;;;;2.05;0.55;;;7.50;99.90;;;;;;10286290;28;20493;-71
2023/01/19 13:05:20;;;;;;;3.20;0.63;;;7.50;99.90;;;;;;10287460;28;20063;-71
2023/01/19 13:10:53;;;;;;;6.15;0.65;;;7.50;99.90;;;;;;10281722;28;20178;-71
2023/01/19 13:16:18;;;;;;;1.67;0.63;;;7.60;99.90;;;;;;10288996;28;20027;-71
2023/01/19 13:21:42;;;;;;;1.63;0.70;;;7.60;99.90;;;;;;10282863;28;20023;-72
2023/01/19 13:27:02;;;;;;;1.30;0.60;;;7.60;99.90;;;;;;10288049;28;20034;-72
2023/01/19 13:32:24;;;;;;;3.53;0.70;;;7.60;99.90;;;;;;10285235;28;20019;-71
2023/01/19 13:37:44;;;;;;;3.65;1.08;;;7.60;99.90;;;;;;10282848;28;20497;-73
2023/01/19 13:43:14;;;;;;;5.45;0.80;;;6.60;99.90;;;;;;10286981;28;20035;-73
2023/01/19 13:48:33;;;;;;;3.15;0.52;;;7.60;99.90;;;;;;10280084;28;20433;-73
2023/01/19 13:53:57;;;;;;;2.75;0.60;;;7.50;99.90;;;;;;10285757;28;20026;-73
2023/01/19 13:59:16;;;;;;;2.88;0.57;;;7.50;99.90;;;;;;10281795;28;20058;-73
2023/01/19 14:04:35;;;;;;;;;;;7.60;99.90;;;;;;10280829;28;20027;-73
2023/01/19 14:10:05;;;;;;;0.60;0.30;;;7.60;99.90;;;;;;10285335;28;20427;-73
2023/01/19 14:15:25;;;;;;;1.55;0.57;;;7.60;99.90;;;;;;10282476;28;20034;-73
2023/01/19 14:21:14;;;;;;;4.78;0.60;;;7.60;99.90;;;;;;10277500;28;20066;-73
2023/01/19 14:26:36;;;;;;;2.50;0.60;;;7.60;99.90;;;;;;10278233;28;20110;-73
2023/01/19 14:31:59;;;;;;;2.60;0.80;;;7.60;99.90;;;;;;10282448;28;20421;-73
2023/01/19 14:37:19;;;;;;;2.33;0.70;;;7.50;99.90;;;;;;10280507;28;20070;-73
2023/01/19 14:42:56;;;;;;;2.28;0.50;;;7.50;99.90;;;;;;10278457;28;20023;-73
2023/01/19 14:48:18;;;;;;;3.05;0.68;;;7.50;99.90;;;;;;10284775;28;20492;-73
2023/01/19 14:53:37;;;;;;;1.70;0.75;;;7.50;99.90;;;;;;10282041;28;20034;-73
2023/01/19 14:58:59;;;;;;;0.80;0.43;;;7.50;99.90;;;;;;10283876;28;20030;-73
2023/01/19 15:04:18;;;;;;;2.92;0.70;;;7.60;99.90;;;;;;10286675;28;20113;-73
2023/01/19 15:09:38;;;;;;;4.53;0.60;;;7.50;99.90;;;;;;10282743;28;20396;-73
2023/01/19 15:14:57;;;;;;;1.60;0.60;;;7.50;99.90;;;;;;10280740;28;20030;-73
2023/01/19 15:20:18;;;;;;;;;;;8.20;99.90;;;;;;10273059;28;20105;-73
2023/01/19 15:25:38;;;;;;;2.15;0.50;;;7.50;99.90;;;;;;10289984;28;19906;-73
2023/01/19 15:30:58;;;;;;;1.52;0.55;;;7.50;99.90;;;;;;10274235;28;20268;-73
2023/01/19 15:36:20;;;;;;;0.73;0.30;;;7.40;99.90;;;;;;10297773;22;20048;-71
2023/01/19 15:41:39;;;;;;;2.35;0.80;;;7.40;99.90;;;;;;10195220;28;20023;-66
2023/01/19 15:46:59;;;;;;;2.53;1.23;;;7.40;99.90;;;;;;10181165;28;20481;-66
2023/01/19 15:52:18;;;;;;;;;;;7.40;99.90;;;;;;10193624;28;20477;-69
2023/01/19 15:57:37;;;;;;;;;;;7.30;99.90;;;;;;10183283;28;19946;-73
2023/01/19 16:02:57;;;;;;;2.75;1.02;;;7.10;98.40;;;;;;10167792;28;20356;-66
2023/01/19 16:08:16;;;;;;;6.43;1.02;;;7.10;99.90;;;;;;10191170;28;20036;-65
2023/01/19 16:13:36;;;;;;;;;;;7.20;99.90;;;;;;10176074;28;20044;-65
2023/01/19 16:18:55;;;;;;;;;;;7.20;99.80;;;;;;10156519;28;19923;-66
2023/01/19 16:24:14;;;;;;;2.90;0.88;;;7.10;99.90;;;;;;10172259;28;19954;-71
2023/01/19 16:29:34;;;;;;;2.78;1.10;;;7.20;99.90;;;;;;10182702;28;20388;-67
2023/01/19 16:34:53;;;;;;;4.07;1.13;;;7.20;99.90;;;;;;10157584;28;20036;-68
2023/01/19 16:40:13;;;;;;;6.07;1.10;;;7.00;99.90;;;;;;10177704;28;20039;-68
2023/01/19 16:45:32;;;;;;;2.92;1.08;;;7.00;99.90;;;;;;10187768;28;20191;-68
2023/01/19 16:51:03;;;;;;;4.57;1.25;;;7.00;99.90;;;;;;10164731;28;20034;-66
2023/01/19 16:56:22;;;;;;;5.35;1.02;;;6.90;99.90;;;;;;10198363;28;20044;-65
2023/01/19 17:01:43;;;;;;;4.72;1.20;;;7.00;99.90;;;;;;10167697;28;20047;-65
2023/01/19 17:07:02;;;;;;;2.17;0.75;;;6.90;99.90;;;;;;10194658;28;20475;-65
2023/01/19 17:12:21;;;;;;;2.28;0.98;;;6.90;99.90;;;;;;10166580;28;20041;-68
2023/01/19 17:17:40;;;;;;;3.28;1.17;;;7.00;99.90;;;;;;10207235;28;20452;-70
2023/01/19 17:22:59;;;;;;;;;;;7.00;99.90;;;;;;10165010;28;20286;-67
2023/01/19 17:28:19;;;;;;;3.88;1.17;;;6.90;99.90;;;;;;10198999;28;20333;-67
2023/01/19 17:33:39;;;;;;;1.60;0.77;;;7.00;99.90;;;;;;10156401;28;20036;-68
2023/01/19 17:39:02;;;;;;;3.40;1.10;;;6.90;99.90;;;;;;10184830;28;20110;-69
2023/01/19 17:44:22;;;;;;;3.55;1.00;;;7.00;99.90;;;;;;10158454;28;20059;-66
2023/01/19 17:49:41;;;;;;;2.28;0.90;;;7.00;99.90;;;;;;10160614;28;20032;-68
2023/01/19 17:55:00;;;;;;;;;;;7.00;99.90;;;;;;10172942;28;20040;-68
2023/01/19 18:00:20;;;;;;;4.65;1.42;;;7.10;99.90;;;;;;10168350;28;19914;-72
2023/01/19 18:05:39;;;;;;;7.93;1.90;;;7.10;99.90;;;;;;10172740;28;20033;-71
2023/01/19 18:11:00;;;;;;;2.28;1.10;;;7.00;99.90;;;;;;10176902;28;20038;-72
2023/01/19 18:16:23;;;;;;;2.13;1.10;;;7.00;99.90;;;;;;10168297;28;20024;-69
2023/01/19 18:21:42;;;;;;;4.20;1.00;;;7.00;99.90;;;;;;10174019;28;20100;-72
2023/01/19 18:27:01;;;;;;;3.60;1.35;;;7.00;99.90;;;;;;10166415;28;20488;-67
2023/01/19 18:32:20;;;;;;;4.03;1.05;;;7.00;99.90;;;;;;10174785;28;20048;-67
2023/01/19 18:37:39;;;;;;;;;;;7.00;99.90;;;;;;10159946;28;20489;-66
2023/01/19 18:42:59;;;;;;;;;;;7.00;99.90;;;;;;10162367;28;19907;-67
2023/01/19 18:48:18;;;;;;;3.72;0.95;;;8.00;99.90;;;;;;10166830;28;20379;-67
2023/01/19 18:53:37;;;;;;;;;;;7.00;99.90;;;;;;10160615;28;20028;-71
2023/01/19 18:58:56;;;;;;;4.75;1.55;;;6.90;99.90;;;;;;10186339;28;20352;-73
2023/01/19 19:04:15;;;;;;;;;;;7.00;99.90;;;;;;10166596;28;20043;-67
2023/01/19 19:09:35;;;;;;;;;;;7.10;99.90;;;;;;10171181;28;19955;-67
2023/01/19 19:14:54;;;;;;;3.05;1.00;;;6.90;99.90;;;;;;10185074;28;19946;-67
2023/01/19 19:20:13;;;;;;;1.55;0.80;;;6.90;99.90;;;;;;10165482;28;20220;-68
2023/01/19 19:25:32;;;;;;;2.42;1.27;;;6.90;99.90;;;;;;10169591;28;20036;-67
2023/01/19 19:31:00;;;;;;;;;;;6.80;99.90;;;;;;10181502;28;20040;-67
2023/01/19 19:36:21;;;;;;;2.05;0.85;;;6.80;99.90;;;;;;10164414;28;20006;-67
2023/01/19 19:41:41;;;;;;;1.88;0.95;;;6.80;99.90;;;;;;10184760;28;20028;-65
2023/01/19 19:47:00;;;;;;;1.92;0.73;;;6.80;99.90;;;;;;10175181;28;20032;-66
2023/01/19 19:52:19;;;;;;;;;;;6.80;99.90;;;;;;10187449;28;20134;-67
2023/01/19 20:02:42;;;;;;;1.55;0.75;;;6.80;99.90;;;;;;10530890;27;20944;-66
2023/01/19 20:08:01;;;;;;;1.75;1.00;;;7.10;99.90;;;;;;10507641;28;20342;-64
2023/01/19 20:13:21;;;;;;;1.92;0.80;;;7.00;99.90;;;;;;10519523;28;20055;-63
2023/01/19 20:18:42;;;;;;;2.00;0.88;;;7.00;99.90;;;;;;10514103;28;20044;-63
2023/01/19 20:24:04;;;;;;;3.00;0.70;;;6.90;99.90;;;;;;10514261;28;20100;-63
2023/01/19 20:29:23;;;;;;;1.73;0.70;;;6.80;99.90;;;;;;10515009;28;20353;-63
2023/01/19 20:34:42;;;;;;;;;;;8.10;99.90;;;;;;10507454;28;20024;-63
2023/01/19 20:40:02;;;;;;;2.20;0.77;;;6.90;99.90;;;;;;10506725;28;19912;-63
2023/01/19 20:45:22;;;;;;;1.08;0.73;;;6.70;99.90;;;;;;10498824;28;20111;-63
2023/01/19 20:50:41;;;;;;;1.38;0.70;;;6.70;99.90;;;;;;10504520;28;20040;-63
2023/01/19 20:56:04;;;;;;;2.72;0.70;;;6.60;99.90;;;;;;10504417;28;20028;-63
2023/01/19 21:01:24;;;;;;;1.15;0.68;;;6.60;99.90;;;;;;10500875;28;20044;-64
2023/01/19 21:06:44;;;;;;;2.67;1.00;;;6.60;99.90;;;;;;10514580;28;20040;-63
2023/01/19 21:12:03;;;;;;;4.30;0.77;;;6.60;99.90;;;;;;10498191;28;20120;-63
2023/01/19 21:17:22;;;;;;;1.80;0.90;;;6.60;99.90;;;;;;10484771;28;20095;-63
2023/01/19 21:22:42;;;;;;;0.82;0.70;;;6.60;99.90;;;;;;10484749;28;20029;-63
2023/01/19 21:28:01;;;;;;;1.38;0.73;;;6.50;99.90;;;;;;10484760;28;20025;-63
2023/01/19 21:33:21;;;;;;;1.35;0.70;;;6.50;99.90;;;;;;10483028;28;20033;-63
2023/01/19 21:38:40;;;;;;;2.00;0.70;;;6.00;99.90;;;;;;10478456;28;20480;-62
2023/01/19 21:44:00;;;;;;;;;;;6.50;99.90;;;;;;10470550;28;20040;-62
2023/01/19 21:49:19;;;;;;;2.50;0.68;;;6.50;99.90;;;;;;10482541;28;19905;-62
2023/01/19 21:54:39;;;;;;;1.00;0.75;;;6.50;99.90;;;;;;10479238;28;20040;-63
2023/01/19 21:59:58;;;;;;;1.23;0.65;;;6.40;99.90;;;;;;11307970;22;20056;-63
2023/01/19 22:05:17;;;;;;;1.42;0.70;;;6.40;99.90;;;;;;10484240;28;20024;-63
2023/01/19 22:10:36;;;;;;;1.08;0.68;;;6.80;99.90;;;;;;10475155;28;20036;-62
2023/01/19 22:15:59;;;;;;;1.92;0.80;;;6.40;99.90;;;;;;10491494;28;20539;-61
2023/01/19 22:21:24;;;;;;;1.10;0.70;;;6.40;99.90;;;;;;10467418;28;20040;-63
2023/01/19 22:26:43;;;;;;;1.10;0.45;;;6.40;99.90;;;;;;10476378;28;20032;-62
2023/01/19 22:32:02;;;;;;;0.68;0.50;;;6.40;99.90;;;;;;10463823;28;20033;-64
2023/01/19 22:37:21;;;;;;;;;;;6.40;99.90;;;;;;10466867;28;20459;-63
2023/01/19 22:42:44;;;;;;;3.85;0.70;;;6.30;99.90;;;;;;10474475;28;19917;-61
2023/01/19 22:48:04;;;;;;;0.93;0.50;;;6.30;99.90;;;;;;10479695;28;20032;-61
2023/01/19 22:53:23;;;;;;;1.73;0.50;;;6.30;99.90;;;;;;10466879;28;20392;-61
2023/01/19 22:58:45;;;;;;;;;;;6.30;99.90;;;;;;10471536;28;20044;-62
2023/01/19 23:04:06;;;;;;;0.82;0.60;;;6.30;99.90;;;;;;10479757;28;19987;-61
2023/01/19 23:09:25;;;;;;;1.00;0.60;;;6.30;99.90;;;;;;10482505;28;20630;-61
2023/01/19 23:14:44;;;;;;;0.47;0.45;;;6.30;99.90;;;;;;10483759;28;20473;-65
2023/01/19 23:20:04;;;;;;;2.00;0.35;;;6.30;99.90;;;;;;10476491;28;20028;-62
2023/01/19 23:25:23;;;;;;;0.85;0.50;;;6.20;99.90;;;;;;10480969;28;20020;-61
2023/01/19 23:30:42;;;;;;;0.45;0.30;;;6.20;99.90;;;;;;10475359;28;20032;-62
2023/01/19 23:36:01;;;;;;;0.93;0.60;;;6.20;99.90;;;;;;10473115;28;20028;-62
2023/01/19 23:41:21;;;;;;;1.08;0.70;;;6.20;99.90;;;;;;10473320;28;20291;-62
2023/01/19 23:46:40;;;;;;;1.10;0.90;;;6.20;99.90;;;;;;10476439;28;20021;-62
2023/01/19 23:52:00;;;;;;;1.55;0.75;;;6.20;99.90;;;;;;10478143;28;20036;-61
2023/01/19 23:57:19;;;;;;;1.30;0.65;;;6.30;99.90;;;;;;10470358;28;20052;-62
